Aérodrome :
LOGIN :

S'inscrire | Disclaimer

   EN    FR    IT 

 










Légende :    VFR   VFR Marginal   IFR   IFR Intensif   IFR Très Intensif
Visi : 
Plafond : 
>= 8 km
>= 3000ft
5 à 8 km
1000 à 3000 ft
1500m à 5 km
500 à 1000 ft
800 à 1500m
200 à 500 ft
< 800m
< 200 ft
Symboles :   Orages  Brouillard  Fortes neiges  Fortes précipitations  Vent > 20 kt
SIGMETs :   Divers  Orages  Givrage  Turbulence  Onde Orograph.  Cendres Volcan.







- Altitude de l'aérodrome : 433 ft
- Voir les cartes d'approche


LFOC - Chateaudun

DERNIER METAR :
  • 180730Z AUTO 16002KT CAVOK 00/M02 Q1019 NOSIG

METARs EXPIRÉS :
  • 180700Z AUTO 19002KT CAVOK M01/M02 Q1019 NOSIG
  • 180630Z AUTO 20003KT CAVOK M01/M02 Q1019 NOSIG
  • 180600Z AUTO 18003KT CAVOK M02/M03 Q1019 NOSIG
  • 180530Z AUTO 00000KT CAVOK M02/M03 Q1019
  • 180500Z AUTO 00000KT CAVOK M01/M03 Q1019

TAF AMD TAF LFOC
Valide du 18 à 05h jusqu'au 19 à 03h UTC


180540Z 1805/1903 00000KT CAVOK
BECMG 1809/1811 17010KT
BECMG 1823/1901 26005KT 4900 -RA BKN008 BKN015
Pas de NOTAMs connus pour ce terrain.



MET'MAP, la Météo Aéronautique d'un coup d'oeil ! - Copyright ORBIFLY Décembre 2007 - Disclaimer

ORBIFLY MET'MAP TEAM :

Programmation & Développement : Alexandra Zaïnal
Conception & Développement : Baudouin d'Aumeries
Co-Programmation & Développement : Marc-Olivier Méhu
Soutien technique & logistique : Manuel Goepfert

Contact : metmap@orbifly.com




SOURCES & CREDITS :

   NOAA